ANA391 RJFF-RJCC
Flight info
| Callsign | ANA391 |
|---|---|
| Flight time | N/A |
| Altitude | 37000 |
| Route | BUTUR Y453 MARCO Y141 SAMON Y14 GOLDO Y19 MRE Y13 SIRAO Y139 NAVER |
| Aircraft | B742/H-SDFHIRWXY/L |
Departure
| Time | 2026-05-09 07:09 |
|---|---|
| Airport | Fukuoka Airport (RJFF) |
Arrival
| Time | N/A |
|---|---|
| Airport | New Chitose Airport (RJCC) |
| Time | Latitude | Longitude | Altitude | Speed | Heading |
|---|---|---|---|---|---|
| 2026-05-09 06:27 | 33.59848 | 130.44656 | 46 ft | 0 kts | 57° |
| 2026-05-09 06:53 | 33.59840 | 130.44643 | 46 ft | 2 kts | 57° |
| 2026-05-09 06:54 | 33.59832 | 130.44627 | 46 ft | 2 kts | 57° |
| 2026-05-09 06:54 | 33.59824 | 130.44612 | 46 ft | 2 kts | 57° |
| 2026-05-09 06:54 | 33.59816 | 130.44597 | 46 ft | 2 kts | 57° |
| 2026-05-09 06:54 | 33.59809 | 130.44582 | 46 ft | 2 kts | 81° |
| 2026-05-09 06:55 | 33.59810 | 130.44563 | 46 ft | 2 kts | 111° |
| 2026-05-09 06:55 | 33.59819 | 130.44548 | 46 ft | 2 kts | 139° |
| 2026-05-09 06:55 | 33.59825 | 130.44544 | 46 ft | 1 kts | 151° |
| 2026-05-09 06:55 | 33.59827 | 130.44542 | 46 ft | 0 kts | 150° |
| 2026-05-09 06:57 | 33.59799 | 130.44562 | 46 ft | 8 kts | 148° |
| 2026-05-09 06:57 | 33.59747 | 130.44600 | 46 ft | 8 kts | 149° |
| 2026-05-09 06:58 | 33.59699 | 130.44636 | 46 ft | 9 kts | 149° |
| 2026-05-09 06:58 | 33.59626 | 130.44685 | 46 ft | 14 kts | 150° |
| 2026-05-09 06:58 | 33.59541 | 130.44746 | 46 ft | 13 kts | 148° |
| 2026-05-09 06:58 | 33.59459 | 130.44803 | 46 ft | 14 kts | 152° |
| 2026-05-09 06:59 | 33.59354 | 130.44842 | 46 ft | 17 kts | 171° |
| 2026-05-09 06:59 | 33.59225 | 130.44876 | 46 ft | 19 kts | 159° |
| 2026-05-09 06:59 | 33.59108 | 130.44948 | 46 ft | 19 kts | 149° |
| 2026-05-09 06:59 | 33.58988 | 130.45032 | 46 ft | 20 kts | 150° |
| 2026-05-09 07:00 | 33.58855 | 130.45122 | 46 ft | 22 kts | 149° |
| 2026-05-09 07:00 | 33.58712 | 130.45216 | 46 ft | 23 kts | 151° |
| 2026-05-09 07:00 | 33.58592 | 130.45300 | 46 ft | 14 kts | 151° |
| 2026-05-09 07:00 | 33.58509 | 130.45357 | 46 ft | 14 kts | 150° |
| 2026-05-09 07:01 | 33.58405 | 130.45427 | 46 ft | 17 kts | 150° |
| 2026-05-09 07:01 | 33.58319 | 130.45487 | 46 ft | 12 kts | 150° |
| 2026-05-09 07:01 | 33.58249 | 130.45535 | 46 ft | 10 kts | 149° |
| 2026-05-09 07:01 | 33.58192 | 130.45573 | 46 ft | 9 kts | 150° |
| 2026-05-09 07:02 | 33.58118 | 130.45622 | 46 ft | 17 kts | 152° |
| 2026-05-09 07:02 | 33.57985 | 130.45712 | 46 ft | 23 kts | 152° |
| 2026-05-09 07:02 | 33.57856 | 130.45804 | 46 ft | 20 kts | 142° |
| 2026-05-09 07:02 | 33.57746 | 130.45880 | 46 ft | 15 kts | 153° |
| 2026-05-09 07:03 | 33.57687 | 130.45915 | 46 ft | 0 kts | 153° |
| 2026-05-09 07:04 | 33.57686 | 130.45915 | 46 ft | 1 kts | 153° |
| 2026-05-09 07:04 | 33.57654 | 130.45937 | 46 ft | 8 kts | 155° |
| 2026-05-09 07:04 | 33.57618 | 130.45956 | 46 ft | 0 kts | 166° |
| 2026-05-09 07:05 | 33.57606 | 130.45958 | 46 ft | 4 kts | 181° |
| 2026-05-09 07:06 | 33.57565 | 130.45924 | 46 ft | 10 kts | 232° |
| 2026-05-09 07:06 | 33.57555 | 130.45908 | 46 ft | 0 kts | 238° |
| 2026-05-09 07:07 | 33.57554 | 130.45906 | 46 ft | 1 kts | 238° |
| 2026-05-09 07:07 | 33.57527 | 130.45850 | 46 ft | 12 kts | 250° |
| 2026-05-09 07:07 | 33.57552 | 130.45784 | 46 ft | 2 kts | 329° |
| 2026-05-09 07:08 | 33.57553 | 130.45783 | 46 ft | 1 kts | 329° |
| 2026-05-09 07:09 | 33.57721 | 130.45666 | 46 ft | 62 kts | 330° |
| 2026-05-09 07:09 | 33.58306 | 130.45270 | 46 ft | 127 kts | 330° |
| 2026-05-09 07:09 | 33.59235 | 130.44626 | 150 ft | 171 kts | 329° |
| 2026-05-09 07:09 | 33.60245 | 130.43860 | 771 ft | 172 kts | 326° |
| 2026-05-09 07:10 | 33.61298 | 130.43121 | 1258 ft | 187 kts | 332° |
| 2026-05-09 07:10 | 33.62508 | 130.42334 | 1507 ft | 207 kts | 331° |
| 2026-05-09 07:10 | 33.63821 | 130.41469 | 1738 ft | 220 kts | 334° |
| 2026-05-09 07:10 | 33.65345 | 130.41106 | 1979 ft | 233 kts | 8° |
| 2026-05-09 07:11 | 33.66838 | 130.41933 | 2299 ft | 246 kts | 43° |
| 2026-05-09 07:11 | 33.67813 | 130.43666 | 2664 ft | 260 kts | 61° |
| 2026-05-09 07:11 | 33.68644 | 130.45670 | 3046 ft | 274 kts | 64° |
| 2026-05-09 07:11 | 33.69000 | 130.47923 | 3592 ft | 284 kts | 93° |
| 2026-05-09 07:12 | 33.68374 | 130.50142 | 4221 ft | 290 kts | 123° |
| 2026-05-09 07:12 | 33.66906 | 130.51822 | 4866 ft | 294 kts | 146° |
| 2026-05-09 07:12 | 33.65173 | 130.53055 | 5658 ft | 292 kts | 150° |
| 2026-05-09 07:12 | 33.63377 | 130.54141 | 6536 ft | 285 kts | 156° |
| 2026-05-09 07:13 | 33.61539 | 130.55057 | 7106 ft | 291 kts | 158° |
| 2026-05-09 07:13 | 33.59657 | 130.55978 | 7699 ft | 295 kts | 158° |
| 2026-05-09 07:13 | 33.57754 | 130.56923 | 8288 ft | 299 kts | 157° |
| 2026-05-09 07:13 | 33.55817 | 130.57893 | 8913 ft | 302 kts | 158° |
| 2026-05-09 07:14 | 33.53851 | 130.58882 | 9483 ft | 306 kts | 158° |
| 2026-05-09 07:14 | 33.51870 | 130.59877 | 10000 ft | 313 kts | 158° |
| 2026-05-09 07:14 | 33.49817 | 130.60908 | 10383 ft | 325 kts | 158° |
| 2026-05-09 07:14 | 33.47717 | 130.61963 | 10735 ft | 337 kts | 158° |
| 2026-05-09 07:15 | 33.45490 | 130.63091 | 10941 ft | 355 kts | 155° |
| 2026-05-09 07:15 | 33.43355 | 130.64710 | 10998 ft | 378 kts | 139° |
| 2026-05-09 07:15 | 33.41483 | 130.67058 | 11101 ft | 398 kts | 129° |
| 2026-05-09 07:15 | 33.39761 | 130.69655 | 11796 ft | 400 kts | 127° |
| 2026-05-09 07:16 | 33.38050 | 130.72275 | 12587 ft | 398 kts | 128° |
| 2026-05-09 07:16 | 33.36343 | 130.74838 | 13345 ft | 397 kts | 128° |
| 2026-05-09 07:16 | 33.34594 | 130.77418 | 13823 ft | 404 kts | 129° |
| 2026-05-09 07:16 | 33.32975 | 130.80185 | 14309 ft | 408 kts | 116° |
| 2026-05-09 07:17 | 33.31958 | 130.83359 | 14820 ft | 409 kts | 101° |
| 2026-05-09 07:17 | 33.31638 | 130.86693 | 15338 ft | 409 kts | 86° |
| 2026-05-09 07:17 | 33.32022 | 130.90067 | 15862 ft | 408 kts | 71° |
| 2026-05-09 07:17 | 33.32858 | 130.93288 | 16424 ft | 410 kts | 67° |
| 2026-05-09 07:18 | 33.33783 | 130.96518 | 16923 ft | 415 kts | 67° |
| 2026-05-09 07:18 | 33.34686 | 130.99824 | 17445 ft | 421 kts | 68° |
| 2026-05-09 07:18 | 33.35552 | 131.03189 | 17985 ft | 426 kts | 69° |
| 2026-05-09 07:18 | 33.36390 | 131.06572 | 18432 ft | 432 kts | 69° |
| 2026-05-09 07:19 | 33.37247 | 131.10086 | 18899 ft | 438 kts | 70° |
| 2026-05-09 07:19 | 33.38157 | 131.13592 | 19307 ft | 442 kts | 64° |
| 2026-05-09 07:19 | 33.39587 | 131.16803 | 19790 ft | 437 kts | 50° |
| 2026-05-09 07:19 | 33.41434 | 131.19707 | 20193 ft | 440 kts | 44° |
| 2026-05-09 07:20 | 33.43427 | 131.22481 | 20672 ft | 443 kts | 43° |
| 2026-05-09 07:20 | 33.45469 | 131.25266 | 21071 ft | 449 kts | 43° |
| 2026-05-09 07:20 | 33.47553 | 131.28130 | 21493 ft | 459 kts | 43° |
| 2026-05-09 07:20 | 33.49657 | 131.31055 | 21752 ft | 480 kts | 44° |
| 2026-05-09 07:21 | 33.51895 | 131.34192 | 21884 ft | 503 kts | 44° |
| 2026-05-09 07:21 | 33.54185 | 131.37421 | 22028 ft | 526 kts | 44° |
| 2026-05-09 07:21 | 33.56613 | 131.40861 | 22300 ft | 544 kts | 45° |
| 2026-05-09 07:21 | 33.59009 | 131.44286 | 23532 ft | 538 kts | 45° |
| 2026-05-09 07:22 | 33.61399 | 131.47705 | 24378 ft | 536 kts | 45° |
| 2026-05-09 07:22 | 33.63811 | 131.51149 | 24929 ft | 539 kts | 45° |
| 2026-05-09 07:22 | 33.66215 | 131.54576 | 25431 ft | 543 kts | 45° |
| 2026-05-09 07:22 | 33.68662 | 131.58066 | 25992 ft | 544 kts | 45° |
| 2026-05-09 07:23 | 33.71084 | 131.61522 | 26523 ft | 545 kts | 45° |
| 2026-05-09 07:23 | 33.73594 | 131.64992 | 27044 ft | 546 kts | 44° |
| 2026-05-09 07:23 | 33.76026 | 131.68471 | 27401 ft | 550 kts | 46° |
| 2026-05-09 07:23 | 33.78463 | 131.72041 | 27923 ft | 550 kts | 46° |
| 2026-05-09 07:24 | 33.80900 | 131.75615 | 28337 ft | 551 kts | 46° |
| 2026-05-09 07:24 | 33.83342 | 131.79169 | 28689 ft | 553 kts | 46° |
| 2026-05-09 07:24 | 33.85793 | 131.82713 | 29092 ft | 553 kts | 46° |
| 2026-05-09 07:24 | 33.88277 | 131.86291 | 29400 ft | 556 kts | 46° |
| 2026-05-09 07:25 | 33.90780 | 131.89893 | 29795 ft | 557 kts | 46° |
| 2026-05-09 07:25 | 33.93244 | 131.93436 | 30204 ft | 556 kts | 46° |
| 2026-05-09 07:25 | 33.95747 | 131.97041 | 30708 ft | 554 kts | 46° |
| 2026-05-09 07:25 | 33.98196 | 132.00574 | 31159 ft | 552 kts | 46° |
| 2026-05-09 07:26 | 34.00640 | 132.04102 | 31522 ft | 553 kts | 46° |
| 2026-05-09 07:26 | 34.03122 | 132.07687 | 31846 ft | 554 kts | 46° |
| 2026-05-09 07:26 | 34.05579 | 132.11241 | 32233 ft | 554 kts | 46° |
| 2026-05-09 07:26 | 34.08060 | 132.14731 | 32619 ft | 551 kts | 42° |
| 2026-05-09 07:27 | 34.10793 | 132.17941 | 32912 ft | 548 kts | 37° |
| 2026-05-09 07:27 | 34.13650 | 132.20966 | 33226 ft | 547 kts | 36° |
| 2026-05-09 07:27 | 34.16548 | 132.23927 | 33435 ft | 549 kts | 35° |
| 2026-05-09 07:27 | 34.19464 | 132.26901 | 33691 ft | 551 kts | 35° |
| 2026-05-09 07:28 | 34.22400 | 132.29927 | 33860 ft | 554 kts | 35° |
| 2026-05-09 07:28 | 34.25319 | 132.32965 | 33841 ft | 561 kts | 36° |
| 2026-05-09 07:28 | 34.31253 | 132.39215 | 34139 ft | 567 kts | 36° |
| 2026-05-09 07:29 | 34.34214 | 132.42357 | 34564 ft | 563 kts | 36° |
| 2026-05-09 07:29 | 34.37133 | 132.45454 | 34852 ft | 562 kts | 36° |
| 2026-05-09 07:29 | 34.40060 | 132.48560 | 35128 ft | 561 kts | 36° |
| 2026-05-09 07:29 | 34.42978 | 132.51656 | 35356 ft | 561 kts | 35° |
| 2026-05-09 07:30 | 34.45929 | 132.54788 | 35621 ft | 560 kts | 35° |
| 2026-05-09 07:30 | 34.48848 | 132.57887 | 35897 ft | 560 kts | 35° |
| 2026-05-09 07:30 | 34.51769 | 132.60992 | 36138 ft | 561 kts | 35° |
| 2026-05-09 07:30 | 34.54677 | 132.64088 | 36500 ft | 558 kts | 35° |
| 2026-05-09 07:31 | 34.57603 | 132.67217 | 36877 ft | 556 kts | 36° |
| 2026-05-09 07:31 | 34.60508 | 132.70351 | 36999 ft | 558 kts | 36° |
| 2026-05-09 07:31 | 34.66331 | 132.76625 | 37007 ft | 566 kts | 35° |
| 2026-05-09 07:32 | 34.72257 | 132.82980 | 37008 ft | 574 kts | 36° |
| 2026-05-09 07:32 | 34.78284 | 132.89445 | 37013 ft | 579 kts | 35° |
| 2026-05-09 07:33 | 34.87250 | 132.99095 | 37010 ft | 574 kts | 35° |
| 2026-05-09 07:34 | 34.93247 | 133.05553 | 37010 ft | 578 kts | 35° |
| 2026-05-09 07:34 | 34.99304 | 133.12065 | 37016 ft | 578 kts | 35° |
| 2026-05-09 07:35 | 35.05328 | 133.18521 | 37011 ft | 577 kts | 34° |
| 2026-05-09 07:35 | 35.11349 | 133.24956 | 37007 ft | 576 kts | 34° |
| 2026-05-09 07:36 | 35.17383 | 133.31409 | 36990 ft | 576 kts | 35° |
| 2026-05-09 07:36 | 35.23395 | 133.37857 | 36986 ft | 576 kts | 34° |
| 2026-05-09 07:37 | 35.29321 | 133.44397 | 37220 ft | 573 kts | 37° |
| 2026-05-09 07:37 | 35.35169 | 133.51021 | 37135 ft | 580 kts | 35° |
| 2026-05-09 07:38 | 35.41166 | 133.57665 | 37105 ft | 578 kts | 34° |
| 2026-05-09 07:38 | 35.47115 | 133.64194 | 37110 ft | 576 kts | 34° |
| 2026-05-09 07:39 | 35.53086 | 133.70799 | 37098 ft | 576 kts | 36° |
| 2026-05-09 07:39 | 35.59031 | 133.77408 | 37110 ft | 576 kts | 35° |
| 2026-05-09 07:40 | 35.64974 | 133.83987 | 37106 ft | 576 kts | 35° |
| 2026-05-09 07:40 | 35.70952 | 133.90599 | 37103 ft | 575 kts | 35° |
| 2026-05-09 07:41 | 35.76934 | 133.97226 | 37114 ft | 578 kts | 36° |
| 2026-05-09 07:41 | 35.82914 | 134.03871 | 37116 ft | 577 kts | 35° |
| 2026-05-09 07:42 | 35.88860 | 134.10496 | 37107 ft | 574 kts | 35° |
| 2026-05-09 07:42 | 35.94764 | 134.17084 | 37113 ft | 575 kts | 35° |
| 2026-05-09 07:43 | 36.00709 | 134.23726 | 37108 ft | 578 kts | 35° |
| 2026-05-09 07:43 | 36.06668 | 134.30406 | 37111 ft | 574 kts | 35° |
| 2026-05-09 07:44 | 36.12542 | 134.37004 | 37110 ft | 573 kts | 35° |
| 2026-05-09 07:44 | 36.18495 | 134.43703 | 37105 ft | 574 kts | 35° |
| 2026-05-09 07:45 | 36.24169 | 134.50481 | 37110 ft | 581 kts | 45° |
| 2026-05-09 07:45 | 36.28670 | 134.58540 | 37105 ft | 592 kts | 54° |
| 2026-05-09 07:46 | 36.32833 | 134.67246 | 37093 ft | 583 kts | 56° |
| 2026-05-09 07:46 | 36.34850 | 134.71549 | 37087 ft | 566 kts | 56° |
| 2026-05-09 07:46 | 36.36816 | 134.75696 | 37097 ft | 557 kts | 55° |
| 2026-05-09 07:47 | 36.40863 | 134.84029 | 37094 ft | 563 kts | 54° |
| 2026-05-09 07:47 | 36.44960 | 134.92375 | 37087 ft | 569 kts | 54° |
| 2026-05-09 07:48 | 36.49099 | 135.00827 | 37101 ft | 574 kts | 55° |
| 2026-05-09 07:48 | 36.53241 | 135.09323 | 37084 ft | 578 kts | 54° |
| 2026-05-09 07:49 | 36.57428 | 135.17935 | 37081 ft | 580 kts | 54° |
| 2026-05-09 07:49 | 36.61569 | 135.26477 | 37085 ft | 574 kts | 54° |
| 2026-05-09 07:50 | 36.65665 | 135.34944 | 37081 ft | 573 kts | 54° |
| 2026-05-09 07:50 | 36.69781 | 135.43466 | 37076 ft | 575 kts | 55° |
| 2026-05-09 07:51 | 36.73902 | 135.52023 | 37083 ft | 580 kts | 55° |
| 2026-05-09 07:51 | 36.78016 | 135.60594 | 37079 ft | 576 kts | 54° |
| 2026-05-09 07:52 | 36.82116 | 135.69188 | 37083 ft | 575 kts | 56° |
| 2026-05-09 07:52 | 36.86171 | 135.77791 | 37085 ft | 580 kts | 56° |
| 2026-05-09 07:53 | 36.90272 | 135.86449 | 37069 ft | 581 kts | 56° |
| 2026-05-09 07:53 | 36.94390 | 135.95119 | 37067 ft | 578 kts | 55° |
| 2026-05-09 07:54 | 36.98501 | 136.03783 | 37060 ft | 580 kts | 56° |
| 2026-05-09 07:54 | 37.02615 | 136.12482 | 37073 ft | 583 kts | 56° |
| 2026-05-09 07:55 | 37.06729 | 136.21210 | 37068 ft | 580 kts | 56° |
| 2026-05-09 07:55 | 37.10799 | 136.29868 | 37070 ft | 578 kts | 56° |
| 2026-05-09 07:56 | 37.14876 | 136.38562 | 37074 ft | 579 kts | 56° |
| 2026-05-09 07:56 | 37.18921 | 136.47211 | 37078 ft | 580 kts | 56° |
| 2026-05-09 07:57 | 37.22980 | 136.55913 | 37073 ft | 580 kts | 56° |
| 2026-05-09 07:57 | 37.27047 | 136.64655 | 37067 ft | 577 kts | 56° |
| 2026-05-09 07:58 | 37.31071 | 136.73416 | 37153 ft | 578 kts | 57° |
| 2026-05-09 07:58 | 37.35098 | 136.82211 | 37079 ft | 577 kts | 57° |
| 2026-05-09 07:59 | 37.39103 | 136.90909 | 37070 ft | 578 kts | 56° |
| 2026-05-09 07:59 | 37.43138 | 136.99666 | 37063 ft | 579 kts | 57° |
| 2026-05-09 08:00 | 37.47172 | 137.08447 | 37060 ft | 577 kts | 57° |
| 2026-05-09 08:00 | 37.51154 | 137.17140 | 37067 ft | 576 kts | 57° |
| 2026-05-09 08:01 | 37.55165 | 137.25920 | 37060 ft | 578 kts | 57° |
| 2026-05-09 08:01 | 37.59136 | 137.34639 | 37050 ft | 578 kts | 57° |
| 2026-05-09 08:02 | 37.63097 | 137.43359 | 37043 ft | 573 kts | 57° |
| 2026-05-09 08:02 | 37.67072 | 137.52127 | 37040 ft | 577 kts | 57° |
| 2026-05-09 08:03 | 37.71076 | 137.60988 | 37030 ft | 576 kts | 57° |
| 2026-05-09 08:03 | 37.74992 | 137.69719 | 37014 ft | 574 kts | 58° |
| 2026-05-09 08:04 | 37.78911 | 137.78566 | 37018 ft | 576 kts | 58° |
| 2026-05-09 08:04 | 37.82814 | 137.87324 | 37018 ft | 575 kts | 58° |
| 2026-05-09 08:05 | 37.86745 | 137.96121 | 37011 ft | 574 kts | 58° |
| 2026-05-09 08:05 | 37.90671 | 138.04923 | 37016 ft | 574 kts | 58° |
| 2026-05-09 08:06 | 37.94579 | 138.13710 | 37004 ft | 575 kts | 58° |
| 2026-05-09 08:06 | 37.98492 | 138.22537 | 37008 ft | 575 kts | 57° |
| 2026-05-09 08:07 | 38.02388 | 138.31349 | 37009 ft | 573 kts | 58° |
| 2026-05-09 08:07 | 38.06677 | 138.39804 | 37004 ft | 565 kts | 42° |
| 2026-05-09 08:08 | 38.12608 | 138.46159 | 37005 ft | 551 kts | 26° |
| 2026-05-09 08:08 | 38.18998 | 138.51312 | 36997 ft | 542 kts | 23° |
| 2026-05-09 08:09 | 38.25376 | 138.56349 | 36997 ft | 542 kts | 24° |
| 2026-05-09 08:09 | 38.31748 | 138.61516 | 36997 ft | 544 kts | 24° |
| 2026-05-09 08:10 | 38.38081 | 138.66739 | 36990 ft | 541 kts | 26° |
| 2026-05-09 08:10 | 38.44393 | 138.72028 | 36993 ft | 543 kts | 26° |
| 2026-05-09 08:11 | 38.50680 | 138.77266 | 36987 ft | 542 kts | 26° |
| 2026-05-09 08:11 | 38.57018 | 138.82526 | 36990 ft | 541 kts | 25° |
| 2026-05-09 08:12 | 38.66491 | 138.90390 | 36982 ft | 541 kts | 26° |
| 2026-05-09 08:12 | 38.72738 | 138.95596 | 36968 ft | 538 kts | 26° |
| 2026-05-09 08:13 | 38.79032 | 139.00847 | 36977 ft | 541 kts | 26° |
| 2026-05-09 08:13 | 38.85300 | 139.06091 | 36974 ft | 539 kts | 26° |
| 2026-05-09 08:14 | 38.91599 | 139.11372 | 36963 ft | 540 kts | 26° |
| 2026-05-09 08:14 | 38.97846 | 139.16621 | 36968 ft | 537 kts | 27° |
| 2026-05-09 08:15 | 39.04111 | 139.21896 | 36967 ft | 538 kts | 27° |
| 2026-05-09 08:15 | 39.10352 | 139.27161 | 36963 ft | 538 kts | 27° |
| 2026-05-09 08:16 | 39.16592 | 139.32440 | 36962 ft | 536 kts | 27° |
| 2026-05-09 08:16 | 39.22812 | 139.37711 | 36959 ft | 536 kts | 27° |
| 2026-05-09 08:17 | 39.29043 | 139.43001 | 36953 ft | 537 kts | 27° |
| 2026-05-09 08:17 | 39.35268 | 139.48302 | 36953 ft | 535 kts | 27° |
| 2026-05-09 08:18 | 39.41469 | 139.53590 | 36952 ft | 533 kts | 27° |
| 2026-05-09 08:18 | 39.47647 | 139.58870 | 36949 ft | 535 kts | 27° |
| 2026-05-09 08:19 | 39.53833 | 139.64168 | 36950 ft | 535 kts | 27° |
| 2026-05-09 08:19 | 39.60022 | 139.69530 | 36945 ft | 534 kts | 28° |
| 2026-05-09 08:20 | 39.66184 | 139.74896 | 36942 ft | 534 kts | 28° |
| 2026-05-09 08:20 | 39.72347 | 139.80229 | 36937 ft | 533 kts | 28° |
| 2026-05-09 08:21 | 39.78541 | 139.85582 | 36936 ft | 532 kts | 28° |
| 2026-05-09 08:21 | 39.84680 | 139.90920 | 36938 ft | 532 kts | 28° |
| 2026-05-09 08:22 | 39.90828 | 139.96318 | 36938 ft | 532 kts | 29° |
| 2026-05-09 08:22 | 39.96920 | 140.01686 | 36933 ft | 530 kts | 29° |
| 2026-05-09 08:23 | 40.03030 | 140.07072 | 36926 ft | 530 kts | 29° |
| 2026-05-09 08:23 | 40.09159 | 140.12485 | 36915 ft | 532 kts | 29° |
| 2026-05-09 08:24 | 40.15277 | 140.17906 | 36909 ft | 528 kts | 29° |
| 2026-05-09 08:24 | 40.21336 | 140.23283 | 36910 ft | 530 kts | 29° |
| 2026-05-09 08:25 | 40.27427 | 140.28700 | 36899 ft | 531 kts | 29° |
| 2026-05-09 08:25 | 40.33549 | 140.34158 | 36892 ft | 528 kts | 29° |